FYOO

Okaukuejo Airport

Okaukuejo, Namibia
METAR FYOO 230000Z AUTO 06005KT //// // ////// 19/13 Q1021
Observed Flight Rules
Oct-23 @ 00:00 UTC (an hour ago)
Wind
60° at 5 knots
Temperatures Readings
Current 19°C / 66°F
Dewpoint 13°C / 55°F
Humidity 68%
Altimeter 30.15" Hg
Pressure 1021 hPa
Elevation 1192
METAR FYOO 230000Z AUTO 06005KT //// // ////// 19/13 Q1021
Observed Flight Rules
Oct-23 @ 00:00 UTC
(an hour ago)
Wind
60° at 5 knots
Temperature Dewpoint
19°C / 66°F 13°C / 55°F
Humidity Altimeter Pressure
68% 30.15" Hg 1021 hPa